createdAt,value
2023-03-23T16:00:53.965Z,4.70
2023-03-23T16:03:27.595Z,6.95
2023-03-23T16:05:57.422Z,6.40
2023-03-23T16:08:24.097Z,8.10
2023-03-23T16:10:50.800Z,7.65
2023-03-23T16:13:18.448Z,5.80
2023-03-23T16:15:46.596Z,38.63
2023-03-23T16:18:21.564Z,8.88
2023-03-23T16:20:49.345Z,6.70
2023-03-23T16:23:16.034Z,5.43
2023-03-23T16:25:42.731Z,6.03
2023-03-23T16:28:13.872Z,5.80
2023-03-23T16:30:41.585Z,7.20
2023-03-23T16:33:08.568Z,5.93
2023-03-23T16:35:36.088Z,6.30
2023-03-23T16:38:08.323Z,5.22
2023-03-23T16:40:37.026Z,9.88
2023-03-23T16:43:08.763Z,7.45
2023-03-23T16:45:38.547Z,6.65
2023-03-23T16:48:06.070Z,6.30
2023-03-23T16:50:33.003Z,7.85
2023-03-23T16:52:59.925Z,8.30
2023-03-23T16:55:27.174Z,5.57
2023-03-23T16:58:05.414Z,7.15
2023-03-23T17:00:40.725Z,5.90
2023-03-23T17:03:07.727Z,6.78
2023-03-23T17:05:35.807Z,6.28
2023-03-23T17:08:02.875Z,7.20
2023-03-23T17:10:30.258Z,6.57
2023-03-23T17:12:56.846Z,5.35
2023-03-23T17:15:25.532Z,11.73
2023-03-23T17:17:52.615Z,12.55
2023-03-23T17:20:19.598Z,5.95
2023-03-23T17:22:46.275Z,7.32
2023-03-23T17:25:13.329Z,10.35
2023-03-23T17:27:40.108Z,6.95
2023-03-23T17:30:08.204Z,6.20
2023-03-23T17:32:34.952Z,5.78
2023-03-23T17:35:01.738Z,5.65
2023-03-23T17:37:28.434Z,7.78
2023-03-23T17:39:54.966Z,7.47
2023-03-23T17:42:21.531Z,6.20
2023-03-23T17:44:48.059Z,6.10
2023-03-23T17:47:15.637Z,6.00
2023-03-23T17:49:42.522Z,5.88
2023-03-23T17:52:09.183Z,5.97
2023-03-23T17:54:36.011Z,6.38
2023-03-23T17:57:04.058Z,8.18
2023-03-23T17:59:31.653Z,8.65
2023-03-23T18:01:58.453Z,7.65
2023-03-23T18:04:27.018Z,5.50
2023-03-23T18:06:57.597Z,6.95
2023-03-23T18:09:25.439Z,6.90
2023-03-23T18:11:53.144Z,7.30
2023-03-23T18:14:20.290Z,7.15
2023-03-23T18:16:47.163Z,7.03
2023-03-23T18:19:13.902Z,8.63
2023-03-23T18:21:40.466Z,8.10
2023-03-23T18:24:08.013Z,7.53
2023-03-23T18:26:35.290Z,8.98
2023-03-23T18:29:02.019Z,8.52
2023-03-23T18:31:29.050Z,9.13
2023-03-23T18:33:56.139Z,8.90
2023-03-23T18:36:26.111Z,8.98
2023-03-23T18:38:56.421Z,9.50
2023-03-23T18:41:24.205Z,7.30
2023-03-23T18:43:57.837Z,6.32
2023-03-23T18:46:26.521Z,7.35
2023-03-23T18:48:53.251Z,6.93
2023-03-23T18:51:19.956Z,10.68
2023-03-23T18:53:48.591Z,9.38
2023-03-23T18:56:17.316Z,10.23
2023-03-23T18:58:44.898Z,10.70
2023-03-23T19:01:14.514Z,9.10
2023-03-23T19:03:44.116Z,10.85
2023-03-23T19:06:26.756Z,9.40
2023-03-23T19:08:55.056Z,10.55
2023-03-23T19:11:25.361Z,10.27
2023-03-23T19:14:01.273Z,10.77
2023-03-23T19:16:36.991Z,11.95
2023-03-23T19:19:09.644Z,12.73
2023-03-23T19:21:37.647Z,11.55
2023-03-23T19:24:08.602Z,10.30
2023-03-23T19:26:41.854Z,11.27
2023-03-23T19:31:47.423Z,11.15
2023-03-23T19:34:15.873Z,13.88
2023-03-23T19:36:50.298Z,11.20
2023-03-23T19:39:20.312Z,9.57
2023-03-23T19:41:47.277Z,11.32
2023-03-23T19:44:14.052Z,8.23
2023-03-23T19:46:41.186Z,8.23
2023-03-23T19:49:08.678Z,10.98
2023-03-23T19:51:35.378Z,8.80
2023-03-23T19:54:02.741Z,8.80
2023-03-23T19:56:30.497Z,8.55
2023-03-23T19:59:01.033Z,9.77
2023-03-23T20:01:29.366Z,10.32
2023-03-23T20:04:07.366Z,8.35
2023-03-23T20:06:34.663Z,8.32
2023-03-23T20:09:02.087Z,7.32
2023-03-23T20:11:29.956Z,9.15
2023-03-23T20:13:57.695Z,8.50
2023-03-23T20:16:25.311Z,9.05
2023-03-23T20:18:53.507Z,10.75
2023-03-23T20:21:22.685Z,10.55
2023-03-23T20:23:52.830Z,8.20
2023-03-23T20:26:23.214Z,8.80
2023-03-23T20:31:24.024Z,10.68
2023-03-23T20:34:02.445Z,8.80
2023-03-23T20:36:34.741Z,9.05
2023-03-23T20:39:06.130Z,7.95
2023-03-23T20:41:36.135Z,9.20
2023-03-23T20:44:04.644Z,10.30
2023-03-23T20:46:32.053Z,11.32
2023-03-23T20:48:59.455Z,11.52
2023-03-23T20:51:26.279Z,10.75
2023-03-23T20:53:53.373Z,9.20
2023-03-23T20:56:20.221Z,10.43
2023-03-23T20:58:47.694Z,7.38
2023-03-23T21:01:14.719Z,8.95
2023-03-23T21:03:42.360Z,9.32
2023-03-23T21:06:10.760Z,7.82
2023-03-23T21:08:39.433Z,6.13
2023-03-23T21:11:07.900Z,8.43
2023-03-23T21:13:34.527Z,8.10
2023-03-23T21:16:02.278Z,7.75
2023-03-23T21:18:31.154Z,8.60
2023-03-23T21:21:03.270Z,9.38
2023-03-23T21:23:30.037Z,8.13
2023-03-23T21:26:02.009Z,7.93
2023-03-23T21:28:28.848Z,7.85
2023-03-23T21:31:01.196Z,6.07
2023-03-23T21:33:28.078Z,7.18
2023-03-23T21:35:54.838Z,8.45
2023-03-23T21:38:26.331Z,8.88
2023-03-23T21:40:54.300Z,8.27
2023-03-23T21:43:27.582Z,8.07
2023-03-23T21:45:59.152Z,7.15
2023-03-23T21:48:29.132Z,7.50
2023-03-23T21:50:56.075Z,6.30
2023-03-23T21:53:25.362Z,6.60
2023-03-23T21:58:21.000Z,6.50
2023-03-23T22:00:49.953Z,5.97
2023-03-23T22:03:23.295Z,5.32
2023-03-23T22:05:54.179Z,7.38
2023-03-23T22:08:22.384Z,6.85
2023-03-23T22:11:00.725Z,6.43
2023-03-23T22:13:32.364Z,7.72
2023-03-23T22:16:01.138Z,6.97
2023-03-23T22:18:48.385Z,7.50
2023-03-23T22:21:16.116Z,6.28
2023-03-23T22:23:43.983Z,5.72
2023-03-23T22:26:11.347Z,5.47
2023-03-23T22:28:39.196Z,7.63
2023-03-23T22:31:08.331Z,6.47
2023-03-23T22:33:35.956Z,5.57
2023-03-23T22:36:06.155Z,6.22
2023-03-23T22:38:34.505Z,6.32
2023-03-23T22:41:02.709Z,7.03
2023-03-23T22:43:29.426Z,6.60
2023-03-23T22:45:56.552Z,6.13
2023-03-23T22:48:26.172Z,6.25
2023-03-23T22:50:53.357Z,5.78
2023-03-23T22:53:20.803Z,7.40
2023-03-23T22:55:54.106Z,8.02
2023-03-23T22:58:21.057Z,5.95
2023-03-23T23:00:49.647Z,9.80
2023-03-23T23:03:16.633Z,6.95
2023-03-23T23:05:45.062Z,8.98
2023-03-23T23:08:13.517Z,20.67
2023-03-23T23:10:42.861Z,28.90
2023-03-23T23:13:10.969Z,16.90
2023-03-23T23:15:39.616Z,14.13
2023-03-23T23:18:06.507Z,19.42
2023-03-23T23:20:33.766Z,11.00
2023-03-23T23:23:01.330Z,24.73
2023-03-23T23:25:28.968Z,56.35
2023-03-23T23:27:58.273Z,78.60
2023-03-23T23:32:52.906Z,28.83
2023-03-23T23:35:20.655Z,23.05
2023-03-23T23:37:48.000Z,19.17
2023-03-23T23:40:15.546Z,28.98
2023-03-23T23:42:45.013Z,24.00
2023-03-23T23:47:39.040Z,12.65
2023-03-23T23:50:07.362Z,15.70
2023-03-23T23:52:34.740Z,14.57
2023-03-23T23:55:01.626Z,12.13
2023-03-23T23:57:28.298Z,12.85
2023-03-23T23:59:54.908Z,12.27
